AirNav   ATP
 
 1116 users online  

7K6 Wilcox Field Airport
Anthony, Kansas, USA


FAA INFORMATION EFFECTIVE 04 JANUARY 2018

Location

FAA Identifier: 7K6
Lat/Long: 37-04-57.6000N / 097-57-52.1000W
37-04.960000N / 097-57.868333W
37.0826667 / -97.9644722
(estimated)
Elevation: 1263 ft. / 385.0 m (surveyed)
Variation: 07E (1985)
From city: 5 miles SE of ANTHONY, KS
Time zone: UTC -6 (UTC -5 during Daylight Saving Time)
Zip code: 67003

Airport Operations

Airport use: Open to the public
Activation date: 04/1968
Control tower: no
ARTCC: KANSAS CITY CENTER
FSS: WICHITA FLIGHT SERVICE STATION
NOTAMs facility: ICT (NOTAM-D service available)
Attendance: UNATNDD
Wind indicator: yes
Segmented circle: no

Airport Communications

CTAF: 122.9

Nearby radio navigation aids

VOR radial/distance  VOR name  Freq  Var
ANYr108/10.9ANTHONY VORTAC112.9007E

Airport Services

Parking: tiedowns
Airframe service: MAJOR
Powerplant service: NONE
Bottled oxygen: NONE
Bulk oxygen: NONE

Runway Information

Runway 18/36

Dimensions: 2100 x 80 ft. / 640 x 24 m
Surface: turf, in fair condition
SURFACE ROUGH.
Gradient: N
RUNWAY 18  RUNWAY 36
Latitude: 37-05.131528N37-04.786850N
Longitude: 097-57.849218W097-57.888920W
Elevation: 1262.0 ft.1255.0 ft.
Gradient: 0.3% UP
Traffic pattern: leftleft
Runway heading: 178 magnetic, 185 true358 magnetic, 005 true
Obstructions: 18 ft. tree, 500 ft. from runway, 27:1 slope to clear34 ft. trees, 90 ft. from runway, 20 ft. left of centerline, 2:1 slope to clear

Runway B1

Dimensions: 1400 x 1600 ft. / 427 x 488 m
Surface: turf, in poor condition
ROUGH CULTIVATED FIELD.
Traffic pattern: leftleft

Airport Ownership and Management from official FAA records

Ownership: Privately-owned
Owner: HERBERT L. WILCOX
462 SE 40TH AVE
ANTHONY, KS 67003
Phone 620-842-3261
Manager: HERBERT L. WILCOX
462 SE 40TH AVE
ANTHONY, KS 67003
Phone 620-842-3367

Airport Operational Statistics

Aircraft based on the field: 2
Single engine airplanes: 2
    
Aircraft operations: 80/year *
88% local general aviation
12% transient general aviation
* for 12-month period ending 26 June 2015

Additional Remarks

6 BALLOONS BASED ON ARPT.
FARM ANIMALS OCNLY GRAZE ON RY 18/36 & ON B1.
RY B1 TREES EAST & SOUTH; POWERLINE WEST.
PROPANE & HELIUM GAS AVBL; CALL AMGR (620) 842-3367.

Instrument Procedures

There are no published instrument procedures at 7K6.

Some nearby airports with instrument procedures:

KANY - Anthony Municipal Airport (7 nm NW)
8K2 - Harper Municipal Airport (12 nm N)
O53 - Medford Municipal Airport (20 nm SE)
KEGT - Wellington Municipal Airport (31 nm NE)
KBKN - Blackwell-Tonkawa Municipal Airport (36 nm SE)
 
Loc | Ops | Rwys | IFR | FBO | Links
Com | Nav | Svcs | Stats | Notes

Kansas City Aviation Department
 
Area around 7K6 (Wilcox Field Airport)
 
Road maps at: MapQuest Bing Google
 
Aerial photo
WARNING: Photo may not be current or correct
Aerial photo of 7K6 (Wilcox Field Airport)
Photo by Von Rothenberger
Photo taken 03-Sep-2010
looking north.

Do you have a better or more recent aerial photo of Wilcox Field Airport that you would like to share? If so, please send us your photo.

 
Sectional chart

 
Airport distance calculator
Flying to Wilcox Field Airport? Find the distance to fly.

From to 7K6

Sunrise and sunset
Times for 23-Jan-2018
 Local
(UTC-6)
 Zulu
(UTC)
Morning civil twilight07:1413:14
Sunrise07:4213:42
Sunset17:4623:46
Evening civil twilight18:1400:14

Current date and time
Zulu (UTC)  23-Jan-2018 23:27:35
Local (UTC-6)  23-Jan-2018 17:27:35
 
METAR
8K2 
12nm N 
SuperAWOS
232245Z AUTO 10SM 11/M07 A3026
TAF
KICT 
42nm NE 
231738Z 2318/2418 32008KT P6SM FEW250 FM241300 VRB03KT P6SM SKC
KEND 
46nm S 
231900Z 2319/2501 29009KT 9999 SKC QNH3024INS BECMG 2415/2416 25006KT 9999 SKC QNH3040INS BECMG 2418/2419 21006KT 9999 SKC QNH3027INS TX11/2321Z TNM07/2412Z
KIAB 
46nm NE 
231800Z 2318/2424 32009KT 9999 FEW200 QNH3001INS BECMG 2414/2415 27009KT 9999 SKC QNH3004INS TX10/2418Z TNM04/2412Z
KPNC 
46nm SE 
231738Z 2318/2418 31007KT P6SM FEW200 FM241600 23005KT P6SM SKC
NOTAMs
Click for the latest NOTAMs
NOTAMs are issued by the DoD/FAA and will open in a separate window not controlled by AirNav.

 

 
 

Would you like to see your business listed on this page?

 If your business provides an interesting product or service to pilots, flight crews, aircraft, or users of the Wilcox Field Airport, you should consider listing it here.  To start the listing process, click on the button below
 
Add a business
 

Other Pages about Wilcox Field Airport

Update a link
 
Copyright © AirNav, LLC. All rights reserved. Privacy Policy  Contact